createdAt,value
2022-10-01T00:01:22.104Z,99973.66
2022-10-01T00:03:50.359Z,99970.38
2022-10-01T00:06:20.821Z,99970.91
2022-10-01T00:08:50.596Z,99963.72
2022-10-01T00:11:22.578Z,99958.41
2022-10-01T00:13:51.320Z,99956.47
2022-10-01T00:16:21.294Z,99963.50
2022-10-01T00:18:50.524Z,99959.97
2022-10-01T00:21:21.180Z,99960.91
2022-10-01T00:23:49.651Z,99944.31
2022-10-01T00:26:21.717Z,99949.50
2022-10-01T00:28:53.829Z,99942.63
2022-10-01T00:31:21.681Z,99939.13
2022-10-01T00:33:50.956Z,99930.88
2022-10-01T00:36:18.796Z,99931.88
2022-10-01T00:38:48.193Z,99923.81
2022-10-01T00:41:17.139Z,99914.34
2022-10-01T00:43:48.220Z,99911.56
2022-10-01T00:46:21.658Z,99909.16
2022-10-01T00:48:56.093Z,99913.44
2022-10-01T00:51:24.174Z,99918.63
2022-10-01T00:53:52.227Z,99911.56
2022-10-01T00:56:20.237Z,99909.91
2022-10-01T00:58:56.177Z,99899.28
2022-10-01T01:01:24.718Z,99900.09
2022-10-01T01:03:52.726Z,99899.81
2022-10-01T01:06:20.654Z,99900.41
2022-10-01T01:08:54.963Z,99904.75
2022-10-01T01:11:31.492Z,99895.28
2022-10-01T01:14:07.149Z,99891.91
2022-10-01T01:16:39.799Z,99890.06
2022-10-01T01:19:18.420Z,99897.81
2022-10-01T01:21:52.060Z,99893.47
2022-10-01T01:24:47.304Z,99896.97
2022-10-01T01:27:32.026Z,99894.50
2022-10-01T01:30:06.035Z,99885.75
2022-10-01T01:32:41.734Z,99889.22
2022-10-01T01:35:16.149Z,99882.34
2022-10-01T01:37:51.333Z,99880.25
2022-10-01T01:40:20.684Z,99886.38
2022-10-01T01:42:51.362Z,99881.81
2022-10-01T01:45:25.363Z,99867.94
2022-10-01T01:47:56.219Z,99866.97
2022-10-01T01:50:26.164Z,99863.53
2022-10-01T01:52:54.764Z,99854.50
2022-10-01T01:55:24.813Z,99862.59
2022-10-01T01:57:53.479Z,99863.44
2022-10-01T02:00:22.648Z,99853.84
2022-10-01T02:02:54.516Z,99855.75
2022-10-01T02:05:26.269Z,99848.66
2022-10-01T02:08:27.697Z,99848.97
2022-10-01T02:11:05.581Z,99846.56
2022-10-01T02:13:43.983Z,99844.47
2022-10-01T02:16:20.961Z,99844.31
2022-10-01T02:18:54.522Z,99848.56
2022-10-01T02:21:27.297Z,99848.38
2022-10-01T02:23:59.987Z,99846.13
2022-10-01T02:26:30.437Z,99853.84
2022-10-01T02:29:03.126Z,99853.56
2022-10-01T02:31:34.296Z,99844.66
2022-10-01T02:34:09.658Z,99851.19
2022-10-01T02:36:42.206Z,99847.06
2022-10-01T02:39:12.792Z,99834.09
2022-10-01T02:41:44.400Z,99832.19
2022-10-01T02:44:16.913Z,99828.47
2022-10-01T02:46:51.790Z,99823.50
2022-10-01T02:49:20.198Z,99813.66
2022-10-01T02:51:56.866Z,99813.38
2022-10-01T02:54:30.548Z,99808.19
2022-10-01T02:57:18.048Z,99800.63
2022-10-01T02:59:46.185Z,99800.25
2022-10-01T03:02:15.919Z,99794.09
2022-10-01T03:04:43.794Z,99791.81
2022-10-01T03:07:11.614Z,99787.41
2022-10-01T03:09:39.410Z,99777.59
2022-10-01T03:12:07.715Z,99779.81
2022-10-01T03:14:35.630Z,99779.91
2022-10-01T03:17:03.477Z,99787.88
2022-10-01T03:19:32.661Z,99776.25
2022-10-01T03:22:00.500Z,99782.13
2022-10-01T03:24:28.306Z,99786.53
2022-10-01T03:26:56.886Z,99785.84
2022-10-01T03:29:24.969Z,99782.72
2022-10-01T03:31:53.427Z,99782.00
2022-10-01T03:34:21.852Z,99775.06
2022-10-01T03:36:52.143Z,99770.13
2022-10-01T03:39:20.008Z,99776.94
2022-10-01T03:41:47.913Z,99779.34
2022-10-01T03:44:15.893Z,99774.34
2022-10-01T03:46:43.742Z,99765.03
2022-10-01T03:49:11.662Z,99764.25
2022-10-01T03:51:39.531Z,99768.78
2022-10-01T03:54:09.770Z,99768.16
2022-10-01T03:56:37.746Z,99757.91
2022-10-01T03:59:05.504Z,99750.50
2022-10-01T04:01:34.016Z,99750.09
2022-10-01T04:04:02.639Z,99740.88
2022-10-01T04:06:31.021Z,99747.09
2022-10-01T04:08:58.817Z,99750.88
2022-10-01T04:11:28.134Z,99751.47
2022-10-01T04:13:57.758Z,99749.94
2022-10-01T04:16:25.702Z,99746.88
2022-10-01T04:18:53.748Z,99738.47
2022-10-01T04:21:21.768Z,99729.06
2022-10-01T04:23:50.560Z,99723.31
2022-10-01T04:26:19.085Z,99716.31
2022-10-01T04:28:48.407Z,99716.56
2022-10-01T04:31:29.299Z,99712.47
2022-10-01T04:33:59.278Z,99708.31
2022-10-01T04:36:27.563Z,99704.41
2022-10-01T04:39:01.776Z,99690.72
2022-10-01T04:41:31.621Z,99701.25
2022-10-01T04:44:01.308Z,99689.50
2022-10-01T04:46:29.804Z,99675.50
2022-10-01T04:48:57.833Z,99681.94
2022-10-01T04:51:25.729Z,99678.13
2022-10-01T04:53:53.546Z,99677.19
2022-10-01T04:56:21.398Z,99667.66
2022-10-01T04:58:49.235Z,99678.88
2022-10-01T05:01:18.464Z,99665.03
2022-10-01T05:03:47.340Z,99670.47
2022-10-01T05:06:15.456Z,99651.09
2022-10-01T05:08:43.151Z,99654.28
2022-10-01T05:11:11.027Z,99642.06
2022-10-01T05:13:38.788Z,99642.63
2022-10-01T05:16:06.931Z,99632.31
2022-10-01T05:18:36.512Z,99621.97
2022-10-01T05:21:06.467Z,99620.78
2022-10-01T05:23:34.454Z,99607.94
2022-10-01T05:26:04.150Z,99610.16
2022-10-01T05:28:32.239Z,99597.25
2022-10-01T05:31:00.978Z,99590.84
2022-10-01T05:33:29.777Z,99594.41
2022-10-01T05:36:13.084Z,99597.09
2022-10-01T05:38:42.345Z,99606.19
2022-10-01T05:41:10.570Z,99611.94
2022-10-01T05:43:38.370Z,99612.84
2022-10-01T05:46:07.313Z,99612.50
2022-10-01T05:48:37.657Z,99599.69
2022-10-01T05:51:08.241Z,99603.06
2022-10-01T05:53:37.334Z,99596.47
2022-10-01T05:56:05.383Z,99587.44
2022-10-01T05:58:33.257Z,99600.16
2022-10-01T06:01:01.274Z,99612.00
2022-10-01T06:03:29.581Z,99612.00
2022-10-01T06:05:57.355Z,99607.31
2022-10-01T06:08:26.640Z,99594.50
2022-10-01T06:11:00.293Z,99587.94
2022-10-01T06:13:29.267Z,99586.84
2022-10-01T06:15:57.571Z,99586.03
2022-10-01T06:18:25.440Z,99600.09
2022-10-01T06:20:53.273Z,99598.47
2022-10-01T06:23:21.073Z,99602.81
2022-10-01T06:25:50.472Z,99591.91
2022-10-01T06:28:19.126Z,99590.78
2022-10-01T06:30:47.309Z,99590.66
2022-10-01T06:33:17.198Z,99594.66
2022-10-01T06:35:46.944Z,99592.69
2022-10-01T06:38:16.075Z,99584.72
2022-10-01T06:40:45.057Z,99576.94
2022-10-01T06:43:14.829Z,99579.44
2022-10-01T06:45:43.227Z,99571.06
2022-10-01T06:48:14.910Z,99570.19
2022-10-01T06:50:43.864Z,99580.44
2022-10-01T06:53:11.947Z,99586.69
2022-10-01T06:55:40.081Z,99568.66
2022-10-01T06:58:10.789Z,99574.00
2022-10-01T07:00:40.365Z,99571.75
2022-10-01T07:03:11.072Z,99576.78
2022-10-01T07:05:39.961Z,99578.69
2022-10-01T07:08:08.823Z,99570.75
2022-10-01T07:10:37.770Z,99555.66
2022-10-01T07:13:09.547Z,99560.63
2022-10-01T07:15:37.714Z,99558.66
2022-10-01T07:18:09.506Z,99550.63
2022-10-01T07:20:39.794Z,99548.94
2022-10-01T07:23:09.162Z,99551.53
2022-10-01T07:25:39.331Z,99560.22
2022-10-01T07:28:15.950Z,99561.91
2022-10-01T07:30:47.484Z,99550.00
2022-10-01T07:33:19.125Z,99544.50
2022-10-01T07:35:47.894Z,99544.75
2022-10-01T07:38:16.741Z,99541.38
2022-10-01T07:40:44.703Z,99543.66
2022-10-01T07:43:14.538Z,99545.34
2022-10-01T07:45:42.485Z,99542.75
2022-10-01T07:48:10.438Z,99550.22
2022-10-01T07:50:39.624Z,99550.38
2022-10-01T07:53:07.741Z,99547.78
2022-10-01T07:55:35.753Z,99546.47
2022-10-01T07:58:03.684Z,99545.03
2022-10-01T08:00:33.917Z,99542.41
2022-10-01T08:03:03.866Z,99538.66
2022-10-01T08:05:33.783Z,99538.56
2022-10-01T08:08:05.442Z,99536.81
2022-10-01T08:10:35.911Z,99522.25
2022-10-01T08:13:08.032Z,99530.97
2022-10-01T08:15:36.269Z,99531.13
2022-10-01T08:18:05.343Z,99520.44
2022-10-01T08:20:35.069Z,99510.53
2022-10-01T08:23:05.156Z,99499.47
2022-10-01T08:25:33.515Z,99486.50
2022-10-01T08:28:01.495Z,99494.72
2022-10-01T08:30:29.918Z,99528.66
2022-10-01T08:32:58.522Z,99528.94
2022-10-01T08:35:27.771Z,99531.78
2022-10-01T08:37:56.600Z,99534.13
2022-10-01T08:40:26.002Z,99563.38
2022-10-01T08:42:59.373Z,99570.50
2022-10-01T08:45:34.728Z,99565.03
2022-10-01T08:48:09.150Z,99542.06
2022-10-01T08:50:45.562Z,99542.34
2022-10-01T08:53:19.729Z,99526.06
2022-10-01T08:55:50.697Z,99521.03
2022-10-01T08:58:25.344Z,99527.50
2022-10-01T09:00:53.245Z,99515.94
2022-10-01T09:03:21.259Z,99521.69
2022-10-01T09:06:00.093Z,99539.16
2022-10-01T09:08:44.546Z,99550.28
2022-10-01T09:11:25.487Z,99545.69
2022-10-01T09:14:04.725Z,99545.19
2022-10-01T09:16:38.959Z,99544.09
2022-10-01T09:19:21.407Z,99550.16
2022-10-01T09:21:57.008Z,99544.59
2022-10-01T09:24:40.555Z,99547.13
2022-10-01T09:27:15.421Z,99537.47
2022-10-01T09:29:48.939Z,99546.69
2022-10-01T09:32:22.595Z,99546.28
2022-10-01T09:34:50.454Z,99547.53
2022-10-01T09:37:32.443Z,99553.31
2022-10-01T09:40:15.485Z,99542.41
2022-10-01T09:42:44.995Z,99548.19
2022-10-01T09:45:13.631Z,99536.44
2022-10-01T09:47:43.597Z,99536.25
2022-10-01T09:50:16.796Z,99549.94
2022-10-01T09:52:48.709Z,99537.25
2022-10-01T09:55:29.150Z,99544.88
2022-10-01T09:58:02.642Z,99548.53
2022-10-01T10:00:31.431Z,99551.34
2022-10-01T10:02:59.321Z,99551.44
2022-10-01T10:05:29.242Z,99555.09
2022-10-01T10:08:00.244Z,99551.00
2022-10-01T10:10:46.081Z,99567.72
2022-10-01T10:13:24.251Z,99559.81
2022-10-01T10:15:54.316Z,99584.59
2022-10-01T10:18:29.750Z,99589.59
2022-10-01T10:21:00.317Z,99574.91
2022-10-01T10:23:29.208Z,99585.09
2022-10-01T10:26:00.736Z,99592.56
2022-10-01T10:28:43.358Z,99595.34
2022-10-01T10:31:16.464Z,99585.69
2022-10-01T10:33:54.656Z,99581.88
2022-10-01T10:36:28.299Z,99586.47
2022-10-01T10:38:57.744Z,99574.13
2022-10-01T10:41:27.116Z,99573.38
2022-10-01T10:44:28.435Z,99584.91
2022-10-01T10:47:01.689Z,99576.91
2022-10-01T10:49:32.070Z,99577.09
2022-10-01T10:52:02.513Z,99577.84
2022-10-01T10:54:33.434Z,99590.66
2022-10-01T10:57:03.188Z,99588.91
2022-10-01T10:59:34.408Z,99592.34
2022-10-01T11:02:04.735Z,99588.38
2022-10-01T11:04:45.063Z,99602.38
2022-10-01T11:07:19.980Z,99621.84
2022-10-01T11:10:22.816Z,99610.31
2022-10-01T11:13:20.781Z,99610.84
2022-10-01T11:16:15.451Z,99608.44
2022-10-01T11:18:56.481Z,99605.00
2022-10-01T11:21:37.924Z,99615.06
2022-10-01T11:24:29.464Z,99611.34
2022-10-01T11:27:07.000Z,99591.31
2022-10-01T11:29:48.830Z,99608.13
2022-10-01T11:32:29.295Z,99599.97
2022-10-01T11:35:08.444Z,99603.03
2022-10-01T11:38:03.985Z,99599.78
2022-10-01T11:40:37.822Z,99618.94
2022-10-01T11:43:17.077Z,99608.81
2022-10-01T11:45:50.282Z,99614.31
2022-10-01T11:48:27.568Z,99624.22
2022-10-01T11:51:15.462Z,99618.69
2022-10-01T11:53:48.856Z,99619.78
2022-10-01T11:56:39.322Z,99636.06
2022-10-01T11:59:13.310Z,99631.50
2022-10-01T12:01:47.131Z,99633.19
2022-10-01T12:04:32.698Z,99628.56
2022-10-01T12:07:08.254Z,99631.44
2022-10-01T12:09:47.138Z,99637.22
2022-10-01T12:12:22.403Z,99628.28
2022-10-01T12:14:53.513Z,99647.19
2022-10-01T12:17:44.885Z,99637.13
2022-10-01T12:20:22.304Z,99638.72
2022-10-01T12:22:52.126Z,99628.56
2022-10-01T12:25:25.189Z,99618.31
2022-10-01T12:28:02.238Z,99610.94
2022-10-01T12:30:42.183Z,99614.03
2022-10-01T12:33:33.859Z,99620.41
2022-10-01T12:36:14.692Z,99614.94
2022-10-01T12:38:59.389Z,99623.97
2022-10-01T12:41:43.180Z,99640.63
2022-10-01T12:44:32.388Z,99636.34
2022-10-01T12:47:15.064Z,99642.47
2022-10-01T12:49:50.263Z,99638.47
2022-10-01T12:52:27.986Z,99632.31
2022-10-01T12:55:10.379Z,99635.63
2022-10-01T12:57:46.231Z,99632.81
2022-10-01T13:00:19.139Z,99636.78
2022-10-01T13:03:19.432Z,99648.50
2022-10-01T13:05:59.404Z,99656.69
2022-10-01T13:08:48.999Z,99658.59
2022-10-01T13:11:30.742Z,99669.53
2022-10-01T13:14:00.850Z,99676.34
2022-10-01T13:16:37.190Z,99678.28
2022-10-01T13:19:10.548Z,99690.59
2022-10-01T13:21:52.708Z,99691.13
2022-10-01T13:24:29.909Z,99705.63
2022-10-01T13:27:03.585Z,99690.81
2022-10-01T13:29:42.830Z,99684.16
2022-10-01T13:32:27.134Z,99681.53
2022-10-01T13:34:55.973Z,99690.00
2022-10-01T13:37:34.305Z,99701.41
2022-10-01T13:40:05.852Z,99693.63
2022-10-01T13:42:46.613Z,99704.84
2022-10-01T13:45:25.347Z,99701.19
2022-10-01T13:47:53.539Z,99694.13
2022-10-01T13:50:24.650Z,99688.47
2022-10-01T13:52:52.847Z,99682.78
2022-10-01T13:55:30.028Z,99699.75
2022-10-01T13:58:05.306Z,99705.56
2022-10-01T14:00:33.439Z,99720.25
2022-10-01T14:03:07.503Z,99724.25
2022-10-01T14:05:41.035Z,99724.59
2022-10-01T14:08:17.582Z,99728.03
2022-10-01T14:11:10.955Z,99736.94
2022-10-01T14:14:04.546Z,99736.69
2022-10-01T14:16:38.397Z,99748.75
2022-10-01T14:19:06.519Z,99748.31
2022-10-01T14:21:46.166Z,99754.00
2022-10-01T14:24:23.423Z,99753.38
2022-10-01T14:26:55.785Z,99769.50
2022-10-01T14:29:39.391Z,99765.63
2022-10-01T14:32:20.894Z,99777.56
2022-10-01T14:35:01.903Z,99775.34
2022-10-01T14:37:30.731Z,99773.56
2022-10-01T14:40:02.531Z,99780.19
2022-10-01T14:42:32.212Z,99792.28
2022-10-01T14:45:00.570Z,99785.50
2022-10-01T14:47:35.463Z,99771.16
2022-10-01T14:50:12.056Z,99778.41
2022-10-01T14:52:46.898Z,99779.03
2022-10-01T14:55:25.805Z,99778.72
2022-10-01T14:57:57.307Z,99777.97
2022-10-01T15:00:27.240Z,99783.19
2022-10-01T15:03:04.702Z,99777.47
2022-10-01T15:05:34.801Z,99778.72
2022-10-01T15:08:11.393Z,99779.25
2022-10-01T15:10:41.896Z,99781.31
2022-10-01T15:13:18.271Z,99785.19
2022-10-01T15:15:46.159Z,99787.41
2022-10-01T15:18:16.547Z,99787.00
2022-10-01T15:20:54.305Z,99794.31
2022-10-01T15:23:23.882Z,99787.47
2022-10-01T15:25:52.005Z,99793.78
2022-10-01T15:28:31.613Z,99797.88
2022-10-01T15:31:01.474Z,99804.16
2022-10-01T15:33:31.339Z,99795.56
2022-10-01T15:36:02.563Z,99793.38
2022-10-01T15:38:32.501Z,99795.25
2022-10-01T15:41:26.746Z,99806.00
2022-10-01T15:43:52.326Z,99800.09
2022-10-01T15:46:29.255Z,99808.19
2022-10-01T15:49:17.931Z,99815.28
2022-10-01T15:52:10.329Z,99819.22
2022-10-01T15:54:40.153Z,99833.09
2022-10-01T15:57:08.875Z,99818.25
2022-10-01T15:59:41.727Z,99820.88
2022-10-01T16:02:25.252Z,99824.44
2022-10-01T16:04:56.584Z,99822.41
2022-10-01T16:07:29.942Z,99824.38
2022-10-01T16:09:59.539Z,99815.25
2022-10-01T16:12:30.718Z,99822.56
2022-10-01T16:15:02.007Z,99809.03
2022-10-01T16:17:32.284Z,99803.16
2022-10-01T16:20:03.342Z,99817.50
2022-10-01T16:22:32.996Z,99823.09
2022-10-01T16:25:02.754Z,99826.97
2022-10-01T16:27:35.535Z,99822.75
2022-10-01T16:30:13.527Z,99835.19
2022-10-01T16:32:41.573Z,99839.78
2022-10-01T16:35:20.931Z,99844.25
2022-10-01T16:37:50.451Z,99843.44
2022-10-01T16:40:19.261Z,99849.47
2022-10-01T16:42:49.351Z,99845.22
2022-10-01T16:45:20.423Z,99840.16
2022-10-01T16:47:48.261Z,99850.53
2022-10-01T16:50:19.847Z,99848.84
2022-10-01T16:52:47.736Z,99853.97
2022-10-01T16:55:22.726Z,99867.13
2022-10-01T16:57:50.544Z,99871.53
2022-10-01T17:00:22.182Z,99879.91
2022-10-01T17:02:49.967Z,99890.84
2022-10-01T17:05:22.585Z,99893.34
2022-10-01T17:07:50.966Z,99904.56
2022-10-01T17:10:20.655Z,99898.00
2022-10-01T17:12:49.946Z,99891.66
2022-10-01T17:15:23.178Z,99894.13
2022-10-01T17:17:51.142Z,99878.72
2022-10-01T17:20:19.213Z,99873.03
2022-10-01T17:22:47.092Z,99880.69
2022-10-01T17:25:16.595Z,99880.31
2022-10-01T17:27:44.708Z,99874.56
2022-10-01T17:30:20.742Z,99880.91
2022-10-01T17:32:57.290Z,99886.66
2022-10-01T17:35:25.209Z,99893.41
2022-10-01T17:37:53.553Z,99890.81
2022-10-01T17:40:21.496Z,99897.41
2022-10-01T17:42:49.266Z,99892.00
2022-10-01T17:45:17.370Z,99898.47
2022-10-01T17:47:45.714Z,99900.13
2022-10-01T17:50:25.903Z,99896.00
2022-10-01T17:52:54.610Z,99908.34
2022-10-01T17:55:23.748Z,99904.97
2022-10-01T17:57:52.076Z,99906.72
2022-10-01T18:00:20.476Z,99905.06
2022-10-01T18:02:48.346Z,99913.75
2022-10-01T18:05:17.569Z,99922.59
2022-10-01T18:07:45.375Z,99932.19
2022-10-01T18:10:14.334Z,99929.69
2022-10-01T18:12:42.359Z,99935.69
2022-10-01T18:15:10.442Z,99933.41
2022-10-01T18:17:43.423Z,99928.59
2022-10-01T18:20:21.071Z,99934.53
2022-10-01T18:22:49.586Z,99944.25
2022-10-01T18:25:19.177Z,99952.63
2022-10-01T18:27:49.966Z,99946.22
2022-10-01T18:30:20.170Z,99956.66
2022-10-01T18:32:56.815Z,99973.63
2022-10-01T18:35:30.959Z,99975.13
2022-10-01T18:38:04.102Z,99967.94
2022-10-01T18:40:36.646Z,99980.75
2022-10-01T18:43:09.904Z,99977.41
2022-10-01T18:46:01.443Z,99988.78
2022-10-01T18:48:48.414Z,100001.84
2022-10-01T18:51:24.645Z,100003.78
2022-10-01T18:54:09.358Z,100009.75
2022-10-01T18:56:39.085Z,100015.94
2022-10-01T18:59:39.671Z,100022.16
2022-10-01T19:02:34.836Z,100029.47
2022-10-01T19:05:29.598Z,100047.31
2022-10-01T19:08:11.289Z,100047.03
2022-10-01T19:10:42.896Z,100060.56
2022-10-01T19:13:23.858Z,100063.25
2022-10-01T19:16:06.848Z,100070.53
2022-10-01T19:18:48.848Z,100073.69
2022-10-01T19:21:27.211Z,100082.03
2022-10-01T19:24:27.178Z,100088.91
2022-10-01T19:27:03.136Z,100092.97
2022-10-01T19:30:03.655Z,100102.50
2022-10-01T19:32:38.866Z,100095.50
2022-10-01T19:35:16.687Z,100102.03
2022-10-01T19:37:49.080Z,100101.25
2022-10-01T19:40:25.459Z,100106.47
2022-10-01T19:43:01.327Z,100111.03
2022-10-01T19:45:39.101Z,100115.59
2022-10-01T19:48:15.158Z,100113.75
2022-10-01T19:50:47.430Z,100122.53
2022-10-01T19:53:22.583Z,100121.09
2022-10-01T19:55:53.226Z,100129.84
2022-10-01T19:58:22.253Z,100142.34
2022-10-01T20:00:54.927Z,100146.47
2022-10-01T20:03:32.562Z,100154.56
2022-10-01T20:06:04.649Z,100164.72
2022-10-01T20:08:39.580Z,100169.28
2022-10-01T20:11:22.902Z,100169.84
2022-10-01T20:14:44.709Z,100185.19
2022-10-01T20:17:24.267Z,100189.13
2022-10-01T20:20:00.815Z,100202.44
2022-10-01T20:22:45.620Z,100213.94
2022-10-01T20:25:25.453Z,100224.31
2022-10-01T20:28:07.958Z,100221.59
2022-10-01T20:30:44.782Z,100230.63
2022-10-01T20:33:23.830Z,100234.00
2022-10-01T20:35:59.727Z,100241.91
2022-10-01T20:38:31.818Z,100245.72
2022-10-01T20:41:22.457Z,100249.66
2022-10-01T20:43:58.443Z,100256.75
2022-10-01T20:46:31.108Z,100267.53
2022-10-01T20:49:04.617Z,100259.50
2022-10-01T20:51:40.137Z,100274.19
2022-10-01T20:54:12.373Z,100263.41
2022-10-01T20:56:44.269Z,100271.47
2022-10-01T20:59:19.325Z,100267.28
2022-10-01T21:01:56.093Z,100271.91
2022-10-01T21:04:29.648Z,100272.81
2022-10-01T21:07:07.431Z,100271.06
2022-10-01T21:09:42.454Z,100265.13
2022-10-01T21:12:17.781Z,100265.09
2022-10-01T21:14:56.158Z,100268.09
2022-10-01T21:17:37.245Z,100279.69
2022-10-01T21:20:21.008Z,100281.44
2022-10-01T21:23:04.087Z,100284.13
2022-10-01T21:25:42.512Z,100284.91
2022-10-01T21:28:35.749Z,100287.97
2022-10-01T21:31:15.935Z,100300.66
2022-10-01T21:33:54.259Z,100295.75
2022-10-01T21:36:28.446Z,100307.28
2022-10-01T21:39:03.558Z,100303.09
2022-10-01T21:41:53.745Z,100306.69
2022-10-01T21:44:47.719Z,100320.97
2022-10-01T21:47:23.825Z,100320.13
2022-10-01T21:50:04.205Z,100329.56
2022-10-01T21:52:44.287Z,100317.13
2022-10-01T21:55:33.037Z,100330.63
2022-10-01T21:58:13.365Z,100331.47
2022-10-01T22:00:41.700Z,100337.78
2022-10-01T22:03:22.643Z,100341.41
2022-10-01T22:05:56.107Z,100353.50
2022-10-01T22:08:40.868Z,100363.19
2022-10-01T22:11:14.707Z,100361.66
2022-10-01T22:13:51.378Z,100376.63
2022-10-01T22:16:21.997Z,100367.16
2022-10-01T22:18:56.678Z,100370.00
2022-10-01T22:21:30.814Z,100360.75
2022-10-01T22:24:05.540Z,100362.69
2022-10-01T22:26:38.598Z,100367.06
2022-10-01T22:29:11.441Z,100370.50
2022-10-01T22:31:40.733Z,100367.81
2022-10-01T22:34:15.827Z,100366.09
2022-10-01T22:36:48.687Z,100362.59
2022-10-01T22:39:22.292Z,100363.44
2022-10-01T22:41:53.409Z,100365.19
2022-10-01T22:44:23.034Z,100362.50
2022-10-01T22:47:24.773Z,100370.25
2022-10-01T22:50:07.867Z,100357.06
2022-10-01T22:52:43.546Z,100362.19
2022-10-01T22:55:22.558Z,100364.78
2022-10-01T22:58:08.670Z,100373.31
2022-10-01T23:00:45.589Z,100377.63
2022-10-01T23:03:20.285Z,100388.84
2022-10-01T23:06:00.182Z,100382.59
2022-10-01T23:08:35.007Z,100380.69
2022-10-01T23:11:14.538Z,100381.47
2022-10-01T23:13:53.180Z,100396.09
2022-10-01T23:16:31.820Z,100384.66
2022-10-01T23:19:12.542Z,100417.53
2022-10-01T23:21:51.392Z,100415.72
2022-10-01T23:24:35.654Z,100418.16
2022-10-01T23:27:17.789Z,100435.44
2022-10-01T23:30:02.385Z,100435.19
2022-10-01T23:32:50.546Z,100433.44
2022-10-01T23:35:20.850Z,100447.28
2022-10-01T23:38:17.002Z,100454.88
2022-10-01T23:40:48.275Z,100461.94
2022-10-01T23:43:24.723Z,100453.41
2022-10-01T23:45:59.738Z,100456.09
2022-10-01T23:48:34.736Z,100450.81
2022-10-01T23:51:07.292Z,100466.41
2022-10-01T23:53:41.482Z,100460.34
2022-10-01T23:56:33.993Z,100444.72
2022-10-01T23:59:09.650Z,100439.69
